Time;durP1;ratioP1;P1;durP2;ratioP2;P2;SDS_P1;SDS_P2;PMS_P1;PMS_P2;Temp;Humidity;BMP_temperature;BMP_pressure;BME280_temperature;BME280_humidity;BME280_pressure;Samples;Min_cycle;Max_cycle;Signal;HPM_P1;HPM_P2
2022/05/14 00:02:11;;;;;;;0.40;0.30;;;;;;;14.28;58.21;100437.88;103587;1277;138336;-67
2022/05/14 00:04:39;;;;;;;0.40;0.20;;;;;;;14.20;58.54;100436.95;103759;1274;95618;-66
2022/05/14 00:07:07;;;;;;;0.40;0.20;;;;;;;14.18;58.75;100439.71;103754;1274;109655;-67
2022/05/14 00:09:35;;;;;;;0.40;0.20;;;;;;;14.19;58.68;100442.00;103607;1277;138402;-66
2022/05/14 00:14:50;;;;;;;0.40;0.30;;;;;;;14.11;58.87;100446.27;103610;1277;139013;-66
2022/05/14 00:17:19;;;;;;;0.40;0.30;;;;;;;14.12;58.97;100444.06;103642;1277;95284;-67
2022/05/14 00:19:46;;;;;;;0.40;0.20;;;;;;;14.11;58.87;100447.65;103595;1275;138974;-67
2022/05/14 00:22:15;;;;;;;0.40;0.30;;;;;;;14.05;58.99;100448.64;103726;1274;98363;-68
2022/05/14 00:24:43;;;;;;;0.40;0.20;;;;;;;13.99;59.11;100448.34;103857;1274;108864;-68
2022/05/14 00:27:11;;;;;;;0.40;0.30;;;;;;;14.00;59.12;100446.88;103609;1274;138635;-67
2022/05/14 00:29:39;;;;;;;0.40;0.30;;;;;;;13.99;59.35;100448.33;103734;1274;96106;-67
2022/05/14 00:32:07;;;;;;;0.40;0.20;;;;;;;13.93;59.52;100444.30;103690;1275;138337;-68
2022/05/14 00:34:35;;;;;;;0.40;0.30;;;;;;;13.87;59.59;100441.31;103927;1277;99489;-67
2022/05/14 00:37:04;;;;;;;0.40;0.30;;;;;;;13.83;59.88;100439.69;103778;1274;108765;-68
2022/05/14 00:39:32;;;;;;;0.40;0.30;;;;;;;13.85;59.86;100443.88;103425;1277;138887;-69
2022/05/14 00:42:00;;;;;;;0.40;0.20;;;;;;;13.86;59.91;100445.11;103712;1274;95671;-68
2022/05/14 00:44:28;;;;;;;0.40;0.30;;;;;;;13.84;59.78;100443.55;103646;1274;138697;-68
2022/05/14 00:47:04;;;;;;;0.40;0.30;;;;;;;13.82;59.89;100447.91;103695;1275;99623;-68
2022/05/14 00:49:33;;;;;;;0.40;0.30;;;;;;;13.80;59.88;100449.05;103661;1277;138703;-68
2022/05/14 00:52:02;;;;;;;0.40;0.20;;;;;;;13.76;60.04;100453.33;103660;1278;95602;-67
2022/05/14 00:55:01;;;;;;;0.40;0.30;;;;;;;13.71;60.19;100454.96;103831;1274;95525;-67
2022/05/14 00:57:35;;;;;;;0.40;0.30;;;;;;;13.63;60.34;100455.77;103620;1275;138234;-67
2022/05/14 01:00:11;;;;;;;0.40;0.30;;;;;;;13.59;60.52;100455.39;103904;1274;99738;-68
2022/05/14 01:02:39;;;;;;;0.40;0.20;;;;;;;13.61;60.40;100454.09;103588;1277;139133;-68
2022/05/14 01:05:09;;;;;;;0.40;0.30;;;;;;;13.56;60.70;100450.70;103733;1274;95238;-69
2022/05/14 01:07:37;;;;;;;0.40;0.30;;;;;;;13.61;60.49;100447.30;103655;1275;138295;-68
2022/05/14 01:10:09;;;;;;;0.40;0.30;;;;;;;13.60;60.49;100449.48;103635;1281;109733;-69
2022/05/14 01:12:46;;;;;;;0.40;0.30;;;;;;;13.47;60.90;100446.56;103961;1275;99842;-67
2022/05/14 01:15:18;;;;;;;0.40;0.30;;;;;;;13.52;60.84;100441.92;103516;1278;139154;-68
2022/05/14 01:17:47;;;;;;;0.40;0.30;;;;;;;13.54;60.55;100444.89;103628;1277;96884;-67
2022/05/14 01:20:16;;;;;;;0.40;0.30;;;;;;;13.56;60.57;100444.83;103876;1274;138135;-65
2022/05/14 01:22:53;;;;;;;0.40;0.30;;;;;;;13.52;60.45;100442.63;103759;1274;109046;-67
2022/05/14 01:28:16;;;;;;;0.40;0.30;;;;;;;13.48;60.44;100439.75;103749;1277;109128;-68
2022/05/14 01:30:54;;;;;;;0.40;0.30;;;;;;;13.48;60.53;100445.27;103661;1277;96941;-69
2022/05/14 01:33:23;;;;;;;0.40;0.30;;;;;;;13.39;60.41;100447.06;103496;1278;138662;-68
2022/05/14 01:35:50;;;;;;;0.40;0.30;;;;;;;13.36;60.39;100447.14;103790;1274;109644;-68
2022/05/14 01:38:22;;;;;;;0.40;0.30;;;;;;;13.36;60.27;100441.80;103690;1274;138850;-64
2022/05/14 01:40:50;;;;;;;0.40;0.30;;;;;;;13.36;60.10;100445.54;103645;1278;109018;-68
2022/05/14 01:43:19;;;;;;;0.40;0.30;;;;;;;13.35;60.13;100446.64;103762;1274;95602;-68
2022/05/14 01:45:47;;;;;;;0.40;0.30;;;;;;;13.32;60.15;100445.86;103764;1274;138698;-68
2022/05/14 01:48:15;;;;;;;0.40;0.30;;;;;;;13.25;60.15;100442.01;103761;1275;109593;-69
2022/05/14 01:50:43;;;;;;;0.40;0.30;;;;;;;13.15;60.47;100443.60;103528;1277;138978;-69
2022/05/14 01:53:11;;;;;;;0.40;0.30;;;;;;;13.05;60.57;100441.31;103668;1277;108757;-70
2022/05/14 01:55:39;;;;;;;0.40;0.30;;;;;;;13.04;60.58;100441.52;103631;1274;138942;-69
2022/05/14 02:00:58;;;;;;;0.40;0.30;;;;;;;13.10;60.32;100442.94;103774;1274;109967;-68
2022/05/14 02:03:26;;;;;;;0.40;0.30;;;;;;;13.07;60.39;100447.45;103801;1277;138629;-68
2022/05/14 02:05:54;;;;;;;0.40;0.30;;;;;;;13.06;60.39;100444.45;103657;1274;109378;-68
2022/05/14 02:08:22;;;;;;;0.40;0.30;;;;;;;13.03;60.45;100447.08;103515;1275;138675;-69
2022/05/14 02:10:50;;;;;;;0.40;0.30;;;;;;;12.97;60.49;100447.45;103796;1274;95643;-68
2022/05/14 02:13:19;;;;;;;0.40;0.30;;;;;;;12.93;60.61;100447.25;103776;1274;109666;-69
2022/05/14 02:15:47;;;;;;;0.40;0.30;;;;;;;12.97;60.41;100442.13;103848;1274;138772;-67
2022/05/14 02:18:16;;;;;;;0.40;0.30;;;;;;;12.95;60.33;100441.67;103676;1274;108761;-68
2022/05/14 02:20:44;;;;;;;0.40;0.30;;;;;;;12.93;60.46;100441.73;103598;1277;139197;-68
2022/05/14 02:23:12;;;;;;;0.40;0.30;;;;;;;12.97;60.39;100436.07;103813;1274;95137;-67
2022/05/14 02:25:41;;;;;;;0.40;0.30;;;;;;;12.94;60.18;100439.72;103594;1275;138989;-68
2022/05/14 02:28:10;;;;;;;0.40;0.30;;;;;;;12.94;60.19;100444.18;103743;1277;97667;-67
2022/05/14 02:30:38;;;;;;;0.40;0.30;;;;;;;12.93;60.13;100449.74;103847;1274;108715;-68
2022/05/14 02:33:07;;;;;;;0.40;0.30;;;;;;;12.91;60.10;100455.17;103712;1274;138951;-68
2022/05/14 02:35:35;;;;;;;0.40;0.30;;;;;;;12.81;60.36;100446.97;103768;1277;95580;-69
2022/05/14 02:38:04;;;;;;;0.40;0.30;;;;;;;12.74;60.53;100447.56;103753;1275;139025;-69
2022/05/14 02:40:32;;;;;;;0.40;0.30;;;;;;;12.70;60.84;100442.52;103832;1274;99396;-68
2022/05/14 02:43:01;;;;;;;0.40;0.30;;;;;;;12.63;61.12;100437.05;103788;1274;108339;-67
2022/05/14 02:45:29;;;;;;;0.40;0.30;;;;;;;12.63;61.20;100433.69;103735;1274;139110;-66
2022/05/14 02:47:58;;;;;;;0.40;0.30;;;;;;;12.70;61.02;100436.63;103869;1274;97087;-69
2022/05/14 02:50:26;;;;;;;0.40;0.30;;;;;;;12.80;60.78;100435.95;103672;1274;139209;-68
2022/05/14 02:52:54;;;;;;;0.40;0.30;;;;;;;12.83;60.60;100434.23;103858;1275;99585;-70
2022/05/14 02:55:23;;;;;;;0.40;0.30;;;;;;;12.86;60.56;100435.90;103817;1274;109107;-67
2022/05/14 02:57:51;;;;;;;0.40;0.30;;;;;;;12.89;60.40;100433.49;103827;1275;95806;-67
2022/05/14 03:00:20;;;;;;;0.40;0.30;;;;;;;12.94;60.13;100440.45;103895;1274;95227;-68
2022/05/14 03:02:49;;;;;;;0.40;0.30;;;;;;;12.90;60.27;100440.05;103805;1274;138737;-68
2022/05/14 03:05:21;;;;;;;0.40;0.30;;;;;;;12.87;60.50;100443.88;103735;1277;99796;-69
2022/05/14 03:07:49;;;;;;;0.40;0.30;;;;;;;12.86;60.26;100445.02;103856;1275;138251;-68
2022/05/14 03:10:17;;;;;;;0.40;0.30;;;;;;;12.77;60.48;100442.29;103648;1277;97109;-68
2022/05/14 03:12:45;;;;;;;0.40;0.40;;;;;;;12.75;60.63;100443.06;103797;1275;95404;-67
2022/05/14 03:15:14;;;;;;;0.40;0.30;;;;;;;12.74;60.75;100439.01;103775;1274;138815;-69
2022/05/14 03:17:43;;;;;;;0.40;0.30;;;;;;;12.80;60.76;100441.84;104112;1275;99729;-69
2022/05/14 03:20:13;;;;;;;0.40;0.30;;;;;;;12.82;60.78;100441.94;103845;1277;138073;-69
2022/05/14 03:22:42;;;;;;;0.40;0.30;;;;;;;12.89;60.57;100446.67;104535;1274;95261;-69
2022/05/14 03:25:10;;;;;;;0.40;0.40;;;;;;;12.94;60.26;100445.61;103826;1274;95870;-68
2022/05/14 03:27:39;;;;;;;0.40;0.30;;;;;;;12.97;60.41;100447.30;103806;1274;138854;-68
2022/05/14 03:30:08;;;;;;;0.40;0.30;;;;;;;12.97;60.18;100449.77;103730;1277;98132;-69
2022/05/14 03:32:36;;;;;;;0.40;0.30;;;;;;;12.98;60.52;100453.67;103629;1277;139095;-69
2022/05/14 03:35:08;;;;;;;0.40;0.30;;;;;;;13.00;60.43;100459.31;103772;1274;95666;-69
2022/05/14 03:37:36;;;;;;;0.40;0.30;;;;;;;13.00;60.09;100457.50;104179;1274;138984;-70
2022/05/14 03:40:06;;;;;;;0.40;0.30;;;;;;;12.98;60.24;100454.56;103694;1275;109639;-69
2022/05/14 03:42:34;;;;;;;0.40;0.30;;;;;;;12.99;60.24;100457.01;103837;1274;99640;-69
2022/05/14 03:45:03;;;;;;;0.40;0.30;;;;;;;12.99;60.35;100450.95;103811;1274;138151;-69
2022/05/14 03:47:31;;;;;;;0.40;0.30;;;;;;;12.96;60.23;100451.77;103845;1275;95797;-67
2022/05/14 03:49:59;;;;;;;0.40;0.30;;;;;;;13.03;60.44;100453.52;103742;1274;138980;-70
2022/05/14 03:52:27;;;;;;;0.40;0.30;;;;;;;13.13;60.18;100458.31;104301;1274;109698;-69
2022/05/14 03:54:56;;;;;;;0.40;0.30;;;;;;;13.11;60.08;100458.02;103781;1275;99379;-69
2022/05/14 03:57:24;;;;;;;0.40;0.30;;;;;;;13.16;60.07;100455.90;103479;1274;230642;-68
2022/05/14 03:59:52;;;;;;;0.40;0.20;;;;;;;13.16;59.85;100457.30;103662;1275;95277;-68
2022/05/14 04:02:21;;;;;;;0.40;0.30;;;;;;;13.20;59.81;100457.86;103866;1274;138927;-69
2022/05/14 04:04:49;;;;;;;0.40;0.30;;;;;;;13.24;59.81;100455.42;103877;1274;109804;-69
2022/05/14 04:07:20;;;;;;;0.40;0.30;;;;;;;13.30;59.53;100454.30;103767;1274;99764;-69
2022/05/14 04:09:48;;;;;;;0.40;0.30;;;;;;;13.31;59.58;100455.35;103918;1274;137915;-68
2022/05/14 04:12:16;;;;;;;0.40;0.30;;;;;;;13.30;59.63;100448.96;103666;1275;95792;-68
2022/05/14 04:14:44;;;;;;;0.40;0.30;;;;;;;13.29;59.58;100448.45;103534;1277;138456;-69
2022/05/14 04:17:12;;;;;;;0.40;0.30;;;;;;;13.31;59.78;100440.91;103740;1274;110062;-69
2022/05/14 04:19:40;;;;;;;0.40;0.20;;;;;;;13.32;59.57;100441.41;103614;1274;139009;-70
2022/05/14 04:22:08;;;;;;;0.40;0.20;;;;;;;13.38;59.56;100440.30;103763;1274;107391;-70
2022/05/14 04:24:36;;;;;;;0.40;0.30;;;;;;;13.36;59.59;100440.55;103908;1274;95277;-69
2022/05/14 04:27:05;;;;;;;0.40;0.20;;;;;;;13.34;59.65;100440.63;103899;1274;138545;-68
2022/05/14 04:29:32;;;;;;;0.40;0.30;;;;;;;13.42;59.72;100444.80;103714;1277;109694;-68
2022/05/14 04:32:00;;;;;;;0.40;0.20;;;;;;;13.47;59.56;100445.31;103618;1275;138938;-68
2022/05/14 04:34:29;;;;;;;0.40;0.20;;;;;;;13.46;59.39;100446.98;103801;1274;109515;-69
2022/05/14 04:36:57;;;;;;;0.40;0.20;;;;;;;13.46;59.57;100448.91;103637;1277;95326;-69
2022/05/14 04:39:31;;;;;;;0.40;0.30;;;;;;;13.41;59.56;100452.16;103700;1274;138201;-68
2022/05/14 04:42:02;;;;;;;0.40;0.30;;;;;;;13.50;59.64;100447.19;103813;1275;110719;-68
2022/05/14 04:44:34;;;;;;;0.40;0.30;;;;;;;13.53;59.34;100446.17;103738;1274;138741;-69
2022/05/14 04:47:04;;;;;;;0.40;0.20;;;;;;;13.54;59.44;100449.70;104040;1275;108647;-69
2022/05/14 04:49:43;;;;;;;0.40;0.20;;;;;;;13.57;59.50;100446.41;103627;1275;139538;-68
2022/05/14 04:52:11;;;;;;;0.40;0.30;;;;;;;13.59;59.41;100440.95;103766;1274;95186;-69
2022/05/14 04:54:40;;;;;;;0.40;0.30;;;;;;;13.60;59.26;100441.11;103720;1274;109652;-71
2022/05/14 04:57:09;;;;;;;0.40;0.20;;;;;;;13.66;59.20;100438.36;103650;1274;142648;-70
2022/05/14 04:59:37;;;;;;;0.40;0.20;;;;;;;13.65;59.01;100435.72;103688;1274;108808;-68
2022/05/14 05:04:54;;;;;;;0.40;0.20;;;;;;;13.70;59.22;100442.52;103769;1274;95535;-69
2022/05/14 05:07:22;;;;;;;0.40;0.20;;;;;;;13.79;59.11;100436.10;103816;1274;109611;-69
2022/05/14 05:09:51;;;;;;;0.40;0.20;;;;;;;13.85;59.17;100437.97;103774;1274;99365;-68
2022/05/14 05:12:19;;;;;;;0.40;0.20;;;;;;;13.91;59.06;100442.21;103949;1274;109060;-70
2022/05/14 05:14:52;;;;;;;0.40;0.20;;;;;;;13.89;58.59;100446.38;103692;1274;138416;-71
2022/05/14 05:17:21;;;;;;;0.40;0.30;;;;;;;13.91;58.85;100442.21;103741;1275;96195;-69
2022/05/14 05:19:49;;;;;;;0.40;0.20;;;;;;;13.88;58.85;100440.56;103567;1274;139551;-69
2022/05/14 05:22:17;;;;;;;0.40;0.30;;;;;;;13.91;59.19;100447.42;103750;1274;99504;-68
2022/05/14 05:24:46;;;;;;;0.40;0.20;;;;;;;13.95;58.83;100449.75;103585;1274;108796;-69
2022/05/14 05:27:14;;;;;;;0.40;0.20;;;;;;;13.94;58.66;100454.40;103740;1274;138444;-69
2022/05/14 05:29:41;;;;;;;0.40;0.20;;;;;;;13.96;58.73;100454.86;103725;1277;95220;-70
2022/05/14 05:32:10;;;;;;;0.40;0.20;;;;;;;13.99;58.70;100453.33;103642;1274;138917;-69
2022/05/14 05:34:38;;;;;;;0.40;0.20;;;;;;;14.01;58.58;100449.70;103742;1274;100072;-69
2022/05/14 05:37:06;;;;;;;0.40;0.20;;;;;;;14.02;58.39;100440.73;103728;1274;107776;-72
2022/05/14 05:39:34;;;;;;;0.40;0.20;;;;;;;13.98;58.34;100433.20;103623;1274;138385;-71
2022/05/14 05:42:02;;;;;;;0.40;0.30;;;;;;;14.02;58.66;100426.05;103787;1274;95152;-70
2022/05/14 05:44:30;;;;;;;0.40;0.20;;;;;;;14.08;58.49;100419.58;104268;1274;138444;-67
2022/05/14 05:46:58;;;;;;;0.40;0.30;;;;;;;14.17;58.20;100415.28;103673;1277;99475;-68
2022/05/14 05:49:26;;;;;;;0.40;0.20;;;;;;;14.20;58.02;100413.55;103606;1274;138292;-69
2022/05/14 05:51:54;;;;;;;0.40;0.30;;;;;;;14.26;58.12;100412.41;103706;1274;96166;-70
2022/05/14 05:57:08;;;;;;;0.40;0.20;;;;;;;14.51;57.63;100404.23;103853;1274;139196;-70
2022/05/14 05:59:36;;;;;;;0.40;0.20;;;;;;;14.55;57.24;100408.55;103980;1274;99364;-70
2022/05/14 06:02:04;;;;;;;0.40;0.20;;;;;;;14.54;57.16;100411.25;104190;1274;138624;-70
2022/05/14 06:04:33;;;;;;;0.40;0.20;;;;;;;14.52;57.02;100405.45;103763;1274;96119;-70
2022/05/14 06:07:02;;;;;;;0.40;0.20;;;;;;;14.46;57.04;100402.29;103805;1274;95648;-68
2022/05/14 06:09:30;;;;;;;0.40;0.20;;;;;;;14.43;57.10;100401.38;103761;1277;136943;-71
2022/05/14 06:11:58;;;;;;;0.40;0.20;;;;;;;14.48;57.35;100396.88;104361;1274;99859;-70
2022/05/14 06:14:26;;;;;;;0.40;0.20;;;;;;;14.53;57.77;100393.06;104210;1274;139261;-68
2022/05/14 06:16:54;;;;;;;0.40;0.20;;;;;;;14.63;57.13;100396.42;103647;1274;95243;-69
2022/05/14 06:19:22;;;;;;;0.40;0.20;;;;;;;14.67;56.82;100401.08;103731;1274;95183;-68
2022/05/14 06:21:50;;;;;;;0.40;0.20;;;;;;;14.78;56.81;100408.27;103830;1277;109628;-69
2022/05/14 06:24:18;;;;;;;0.40;0.20;;;;;;;14.90;56.78;100410.83;103790;1274;99836;-69
2022/05/14 06:26:46;;;;;;;0.40;0.20;;;;;;;14.98;56.92;100410.45;103592;1274;138090;-71
2022/05/14 06:29:14;;;;;;;0.40;0.20;;;;;;;14.97;56.47;100414.63;104309;1274;95356;-70
2022/05/14 06:31:42;;;;;;;0.40;0.20;;;;;;;14.94;56.77;100415.64;103644;1275;138801;-69
2022/05/14 06:34:11;;;;;;;0.40;0.20;;;;;;;14.97;56.62;100419.98;104155;1276;109679;-69
2022/05/14 06:36:40;;;;;;;0.40;0.20;;;;;;;15.05;56.62;100416.23;104300;1274;99626;-70
2022/05/14 06:39:07;;;;;;;0.40;0.20;;;;;;;15.07;56.39;100415.27;104217;1274;138781;-69
2022/05/14 06:41:35;;;;;;;0.40;0.20;;;;;;;15.13;56.23;100413.17;104278;1274;95227;-70
2022/05/14 06:44:03;;;;;;;0.40;0.20;;;;;;;15.17;56.02;100412.83;104185;1274;137200;-70
2022/05/14 06:46:31;;;;;;;0.40;0.20;;;;;;;15.24;56.11;100416.45;104261;1274;109733;-69
2022/05/14 06:48:59;;;;;;;0.40;0.20;;;;;;;15.31;56.16;100411.52;103805;1274;99423;-68
2022/05/14 06:51:29;;;;;;;0.40;0.20;;;;;;;15.41;56.05;100409.98;103693;1274;138480;-71
2022/05/14 06:54:02;;;;;;;0.40;0.20;;;;;;;15.43;55.76;100414.90;103860;1276;95733;-68
2022/05/14 06:56:32;;;;;;;0.40;0.20;;;;;;;15.46;55.88;100412.56;103733;1274;138036;-68
2022/05/14 06:59:01;;;;;;;0.40;0.20;;;;;;;15.43;56.16;100409.48;103795;1274;109763;-70
2022/05/14 07:01:29;;;;;;;0.40;0.20;;;;;;;15.46;56.29;100411.48;103711;1274;139070;-69
2022/05/14 07:06:49;;;;;;;0.40;0.20;;;;;;;15.53;56.37;100411.90;103768;1274;95320;-69
2022/05/14 07:09:23;;;;;;;0.40;0.20;;;;;;;15.64;56.13;100403.15;103751;1274;138564;-68
2022/05/14 07:11:53;;;;;;;0.40;0.20;;;;;;;15.74;55.95;100406.64;103691;1274;110223;-71
2022/05/14 07:14:21;;;;;;;0.40;0.20;;;;;;;15.78;56.06;100406.46;104227;1274;138288;-69
2022/05/14 07:16:50;;;;;;;0.40;0.20;;;;;;;15.87;55.88;100404.23;104280;1274;107933;-69
2022/05/14 07:19:18;;;;;;;0.40;0.20;;;;;;;15.89;55.71;100405.75;104388;1274;95306;-70
2022/05/14 07:21:47;;;;;;;0.40;0.20;;;;;;;15.94;55.63;100403.38;104234;1274;137971;-70
2022/05/14 07:24:28;;;;;;;0.40;0.20;;;;;;;16.12;55.84;100400.73;104383;1274;110036;-69
2022/05/14 07:27:01;;;;;;;0.40;0.20;;;;;;;16.36;55.20;100397.16;104193;1274;138797;-70
2022/05/14 07:29:29;;;;;;;0.40;0.20;;;;;;;16.54;54.64;100398.42;104265;1274;108872;-70
2022/05/14 07:31:57;;;;;;;0.40;0.20;;;;;;;16.63;54.17;100396.17;104140;1274;141384;-69
2022/05/14 07:34:26;;;;;;;0.40;0.20;;;;;;;16.73;54.14;100399.95;104348;1274;95326;-69
2022/05/14 07:37:06;;;;;;;0.40;0.20;;;;;;;16.84;53.88;100388.42;104335;1274;109770;-69
2022/05/14 07:39:52;;;;;;;0.40;0.20;;;;;;;16.98;53.55;100386.15;104265;1277;138337;-70
2022/05/14 07:42:30;;;;;;;0.40;0.20;;;;;;;17.06;52.38;100385.54;104177;1274;108806;-70
2022/05/14 07:45:00;;;;;;;0.40;0.20;;;;;;;17.14;51.74;100382.42;104303;1274;138205;-70
2022/05/14 07:47:29;;;;;;;0.40;0.20;;;;;;;17.23;51.87;100378.68;103814;1274;96514;-69
2022/05/14 07:49:57;;;;;;;0.40;0.20;;;;;;;17.34;51.82;100376.34;103777;1274;139210;-70
2022/05/14 07:52:26;;;;;;;0.40;0.20;;;;;;;17.52;51.68;100374.22;103770;1274;99896;-70
2022/05/14 07:54:54;;;;;;;0.40;0.20;;;;;;;17.62;51.25;100380.36;104459;1274;108751;-69
2022/05/14 07:57:22;;;;;;;0.40;0.20;;;;;;;17.65;50.87;100376.02;104190;1274;139266;-68
2022/05/14 07:59:50;;;;;;;0.40;0.20;;;;;;;17.77;50.70;100378.23;103767;1274;95506;-69
2022/05/14 08:02:28;;;;;;;0.40;0.20;;;;;;;17.96;50.17;100376.63;103639;1274;140574;-69
2022/05/14 08:04:57;;;;;;;0.40;0.10;;;;;;;18.19;49.50;100375.13;103824;1274;99385;-69
2022/05/14 08:07:26;;;;;;;0.40;0.10;;;;;;;18.35;49.23;100371.52;103749;1274;138223;-70
2022/05/14 08:09:59;;;;;;;0.40;0.10;;;;;;;18.45;48.39;100372.34;103653;1274;95637;-69
2022/05/14 08:12:34;;;;;;;0.40;0.10;;;;;;;18.32;48.20;100369.56;103712;1275;96102;-70
2022/05/14 08:15:02;;;;;;;0.40;0.10;;;;;;;18.15;48.96;100368.54;104255;1275;139043;-68
2022/05/14 08:17:30;;;;;;;0.40;0.10;;;;;;;18.00;49.53;100365.63;103665;1274;99413;-69
2022/05/14 08:19:58;;;;;;;0.40;0.20;;;;;;;17.86;49.85;100370.39;103523;1274;138427;-68
2022/05/14 08:25:13;;;;;;;0.40;0.10;;;;;;;17.71;50.30;100360.79;103912;1274;95249;-69
2022/05/14 08:27:46;;;;;;;0.40;0.10;;;;;;;17.67;50.02;100358.14;104009;1274;138355;-70
2022/05/14 08:30:16;;;;;;;0.40;0.10;;;;;;;17.62;49.69;100357.16;103700;1276;98261;-69
2022/05/14 08:32:44;;;;;;;0.40;0.10;;;;;;;17.64;49.94;100361.57;103765;1274;138071;-71
2022/05/14 08:35:13;;;;;;;0.40;0.10;;;;;;;17.60;49.83;100362.14;104314;1274;95239;-69
2022/05/14 08:37:42;;;;;;;0.40;0.10;;;;;;;17.49;49.60;100368.69;104153;1275;138255;-68
2022/05/14 08:40:19;;;;;;;0.40;0.10;;;;;;;17.33;49.68;100364.55;103688;1274;109704;-68
2022/05/14 08:42:58;;;;;;;0.40;0.20;;;;;;;17.17;49.57;100372.40;103355;1274;99776;-69
2022/05/14 08:45:29;;;;;;;0.40;0.10;;;;;;;17.06;49.62;100370.45;103919;1274;138617;-71
2022/05/14 08:48:00;;;;;;;0.40;0.10;;;;;;;17.07;50.03;100369.33;104542;1274;95811;-70
2022/05/14 08:50:34;;;;;;;0.40;0.20;;;;;;;17.10;49.93;100367.19;103721;1274;138169;-69
2022/05/14 08:53:06;;;;;;;0.40;0.10;;;;;;;17.09;50.11;100367.42;103783;1274;109768;-73
2022/05/14 08:55:46;;;;;;;0.40;0.10;;;;;;;17.15;50.53;100371.96;104519;1274;138420;-73
2022/05/14 08:58:27;;;;;;;0.40;0.10;;;;;;;17.24;50.22;100376.33;104455;1274;108304;-74
2022/05/14 09:01:04;;;;;;;0.40;0.10;;;;;;;17.22;50.05;100372.31;104520;1274;95282;-75
2022/05/14 09:03:32;;;;;;;0.40;0.10;;;;;;;17.19;49.65;100375.14;104387;1274;138690;-75
2022/05/14 09:06:00;;;;;;;0.40;0.20;;;;;;;17.25;49.59;100381.33;104426;1274;109333;-74
2022/05/14 09:08:27;;;;;;;0.40;0.20;;;;;;;17.39;49.41;100385.73;104456;1274;138105;-74
2022/05/14 09:11:00;;;;;;;0.40;0.20;;;;;;;17.48;49.57;100382.19;104506;1274;108762;-73
2022/05/14 09:13:34;;;;;;;0.40;0.20;;;;;;;17.60;49.06;100381.70;104602;1274;138529;-73
2022/05/14 09:16:02;;;;;;;0.40;0.20;;;;;;;17.62;48.44;100383.58;104465;1274;95185;-73
2022/05/14 09:18:43;;;;;;;0.40;0.10;;;;;;;17.62;48.45;100380.86;104619;1274;109793;-73
2022/05/14 09:21:29;;;;;;;0.40;0.10;;;;;;;17.61;48.22;100377.55;104334;1274;138517;-73
2022/05/14 09:23:59;;;;;;;0.40;0.10;;;;;;;17.63;47.67;100380.27;104561;1274;108520;-72
2022/05/14 09:26:36;;;;;;;0.40;0.10;;;;;;;17.64;47.19;100377.73;104401;1274;138170;-73
2022/05/14 09:29:33;;;;;;;0.40;0.20;;;;;;;17.59;47.13;100379.80;104612;1274;96124;-72
2022/05/14 09:32:05;;;;;;;0.40;0.20;;;;;;;17.61;45.83;100377.16;104392;1274;138603;-73
2022/05/14 09:34:35;;;;;;;0.40;0.10;;;;;;;17.78;45.34;100381.98;104502;1274;98200;-74
2022/05/14 09:37:08;;;;;;;0.40;0.10;;;;;;;17.86;44.43;100377.71;104536;1274;108890;-72
2022/05/14 09:39:36;;;;;;;0.40;0.10;;;;;;;17.87;42.66;100387.34;104504;1274;138844;-72
2022/05/14 09:42:05;;;;;;;0.40;0.10;;;;;;;17.87;42.32;100384.13;104599;1274;95249;-73
2022/05/14 09:44:48;;;;;;;0.40;0.10;;;;;;;17.93;41.66;100389.23;104337;1275;139423;-73
2022/05/14 09:47:28;;;;;;;0.40;0.20;;;;;;;18.09;42.29;100384.86;104519;1274;98726;-67
2022/05/14 09:49:59;;;;;;;0.40;0.10;;;;;;;18.56;42.52;100383.56;103593;1274;138645;-70
2022/05/14 09:52:29;;;;;;;0.40;0.20;;;;;;;19.49;41.74;100382.58;104574;1275;96159;-71
2022/05/14 09:54:58;;;;;;;0.40;0.10;;;;;;;20.93;39.36;100366.90;104639;1274;94770;-71
2022/05/14 09:57:44;;;;;;;0.40;0.10;;;;;;;21.80;37.08;100356.21;103451;1274;138465;-69
2022/05/14 10:00:22;;;;;;;0.40;0.10;;;;;;;22.29;36.20;100351.84;104668;1274;99677;-70
2022/05/14 10:03:18;;;;;;;0.40;0.10;;;;;;;22.86;34.60;100355.05;104362;1275;138514;-70
2022/05/14 10:05:51;;;;;;;0.40;0.10;;;;;;;23.35;32.67;100363.85;104437;1276;95357;-71
2022/05/14 10:08:37;;;;;;;0.40;0.10;;;;;;;24.04;31.63;100352.27;104360;1274;138628;-72
2022/05/14 10:11:31;;;;;;;0.40;0.10;;;;;;;24.97;30.77;100343.69;104424;1274;109768;-69
2022/05/14 10:14:17;;;;;;;0.40;0.10;;;;;;;25.35;30.06;100346.09;104491;1274;139035;-71
2022/05/14 10:17:10;;;;;;;0.40;0.10;;;;;;;25.48;30.01;100342.90;104468;1274;109623;-70
2022/05/14 10:19:44;;;;;;;0.40;0.10;;;;;;;26.66;28.83;100333.06;104343;1274;138272;-70
2022/05/14 10:28:44;;;;;;;0.40;0.00;;;;;;;28.58;26.18;100327.88;103681;1274;99333;-69
2022/05/14 10:31:16;;;;;;;0.40;0.00;;;;;;;27.67;25.46;100328.58;103631;1274;108740;-70
2022/05/14 10:33:47;;;;;;;0.40;0.00;;;;;;;26.40;27.29;100320.02;104463;1274;138626;-71
2022/05/14 10:36:24;;;;;;;0.40;0.00;;;;;;;25.81;28.99;100325.23;103693;1277;96121;-69
2022/05/14 10:39:02;;;;;;;0.40;0.00;;;;;;;25.01;29.42;100324.77;103727;1277;138368;-71
2022/05/14 10:41:34;;;;;;;0.40;0.00;;;;;;;24.17;29.30;100330.00;104515;1274;99398;-68
2022/05/14 10:44:06;;;;;;;0.40;0.00;;;;;;;23.57;29.85;100329.67;103404;1274;139269;-70
2022/05/14 10:46:35;;;;;;;0.40;0.00;;;;;;;23.02;30.22;100322.80;103391;1274;97640;-69
2022/05/14 10:50:18;;;;;;;0.40;0.00;;;;;;;22.57;31.15;100326.88;103770;1274;98304;-68
2022/05/14 10:52:50;;;;;;;0.40;0.00;;;;;;;21.79;31.18;100327.86;103193;1286;109681;-69
2022/05/14 10:55:24;;;;;;;0.40;0.10;;;;;;;21.39;31.92;100326.66;102903;1283;98463;-71
2022/05/14 10:57:57;;;;;;;0.40;0.10;;;;;;;20.95;32.68;100327.95;104150;1277;109269;-69
2022/05/14 11:00:27;;;;;;;0.40;0.10;;;;;;;20.71;32.85;100323.69;103575;1274;95681;-69
2022/05/14 11:03:25;;;;;;;0.40;0.10;;;;;;;20.60;32.92;100322.83;104043;1274;138230;-70
2022/05/14 11:06:01;;;;;;;0.40;0.10;;;;;;;20.89;33.01;100317.15;104404;1274;109803;-72
2022/05/14 11:08:33;;;;;;;0.40;0.10;;;;;;;21.10;32.71;100317.69;104423;1274;138306;-69
2022/05/14 11:11:28;;;;;;;0.40;0.10;;;;;;;21.28;32.50;100325.98;104355;1274;107469;-72
2022/05/14 11:14:03;;;;;;;0.40;0.10;;;;;;;21.25;31.89;100329.80;104466;1274;139207;-71
2022/05/14 11:16:51;;;;;;;0.40;0.10;;;;;;;21.03;32.28;100321.96;104992;1274;95225;-72
2022/05/14 11:19:29;;;;;;;0.40;0.10;;;;;;;20.73;32.93;100325.15;104527;1274;110080;-73
2022/05/14 11:21:59;;;;;;;0.40;0.10;;;;;;;20.47;33.05;100327.83;104432;1274;98357;-72
2022/05/14 11:24:36;;;;;;;0.40;0.10;;;;;;;20.22;33.25;100327.55;104366;1274;108868;-71
2022/05/14 11:27:04;;;;;;;0.40;0.10;;;;;;;20.06;33.91;100334.02;104413;1274;138622;-69
2022/05/14 11:29:57;;;;;;;0.40;0.10;;;;;;;19.97;34.26;100338.76;103527;1274;95549;-70
2022/05/14 11:32:25;;;;;;;0.40;0.10;;;;;;;19.88;34.17;100333.98;103734;1274;138437;-71
2022/05/14 11:34:55;;;;;;;0.40;0.10;;;;;;;19.89;34.64;100336.41;104568;1274;99950;-69
2022/05/14 11:37:31;;;;;;;0.40;0.10;;;;;;;19.99;35.01;100337.61;103618;1274;109740;-70
2022/05/14 11:40:21;;;;;;;0.40;0.10;;;;;;;20.02;34.86;100341.48;104584;1274;96648;-68
2022/05/14 11:42:51;;;;;;;0.40;0.10;;;;;;;20.02;35.28;100336.45;104542;1274;95201;-70
2022/05/14 11:45:24;;;;;;;0.40;0.10;;;;;;;20.04;35.36;100338.49;104455;1274;141434;-69
2022/05/14 11:48:12;;;;;;;0.40;0.10;;;;;;;20.04;35.98;100339.91;104822;1274;99859;-72
2022/05/14 11:50:47;;;;;;;0.40;0.10;;;;;;;20.12;35.97;100343.16;103714;1274;138765;-70
2022/05/14 11:53:18;;;;;;;0.40;0.10;;;;;;;20.00;35.36;100347.62;107026;1274;95233;-72
2022/05/14 11:55:51;;;;;;;0.40;0.10;;;;;;;19.91;35.71;100344.93;104421;1274;138284;-69
2022/05/14 11:58:29;;;;;;;0.40;0.10;;;;;;;19.91;36.02;100345.83;104416;1274;109801;-71